createdAt,value
2024-04-24T00:00:33.380Z,7.69
2024-04-24T00:02:55.830Z,7.68
2024-04-24T00:05:03.008Z,7.68
2024-04-24T00:07:05.593Z,7.68
2024-04-24T00:09:09.477Z,7.67
2024-04-24T00:11:24.829Z,7.66
2024-04-24T00:13:27.310Z,7.66
2024-04-24T00:15:29.988Z,7.66
2024-04-24T00:17:32.622Z,7.65
2024-04-24T00:19:35.818Z,7.64
2024-04-24T00:21:38.206Z,7.62
2024-04-24T00:23:40.719Z,7.58
2024-04-24T00:25:43.183Z,7.54
2024-04-24T00:27:45.675Z,7.52
2024-04-24T00:29:48.177Z,7.51
2024-04-24T00:31:51.710Z,7.49
2024-04-24T00:33:54.306Z,7.47
2024-04-24T00:35:56.766Z,7.45
2024-04-24T00:37:59.282Z,7.43
2024-04-24T00:40:01.812Z,7.41
2024-04-24T00:42:04.324Z,7.37
2024-04-24T00:44:06.912Z,7.32
2024-04-24T00:46:10.634Z,7.28
2024-04-24T00:48:13.847Z,7.26
2024-04-24T00:50:17.228Z,7.24
2024-04-24T00:52:19.843Z,7.20
2024-04-24T00:54:22.238Z,7.12
2024-04-24T00:56:25.244Z,7.05
2024-04-24T00:58:27.952Z,7.01
2024-04-24T01:00:30.549Z,6.92
2024-04-24T01:02:32.957Z,6.87
2024-04-24T01:04:35.490Z,6.83
2024-04-24T01:06:37.915Z,6.81
2024-04-24T01:08:40.663Z,6.82
2024-04-24T01:10:43.224Z,6.80
2024-04-24T01:12:46.395Z,6.78
2024-04-24T01:14:48.882Z,6.78
2024-04-24T01:16:51.802Z,6.79
2024-04-24T01:19:02.542Z,6.80
2024-04-24T01:21:08.082Z,6.80
2024-04-24T01:24:04.604Z,6.79
2024-04-24T01:26:31.560Z,6.77
2024-04-24T01:28:48.093Z,6.72
2024-04-24T01:30:50.622Z,6.67
2024-04-24T01:32:53.101Z,6.63
2024-04-24T01:34:55.850Z,6.58
2024-04-24T01:36:58.624Z,6.51
2024-04-24T01:39:01.212Z,6.43
2024-04-24T01:41:04.037Z,6.35
2024-04-24T01:43:06.574Z,6.29
2024-04-24T01:45:09.629Z,6.26
2024-04-24T01:47:12.439Z,6.26
2024-04-24T01:49:14.967Z,6.27
2024-04-24T01:51:17.615Z,6.26
2024-04-24T01:53:20.442Z,6.26
2024-04-24T01:55:22.939Z,6.27
2024-04-24T01:57:25.397Z,6.28
2024-04-24T01:59:27.783Z,6.30
2024-04-24T02:01:30.358Z,6.28
2024-04-24T02:03:32.829Z,6.27
2024-04-24T02:05:35.296Z,6.26
2024-04-24T02:07:37.867Z,6.27
2024-04-24T02:09:40.229Z,6.27
2024-04-24T02:11:42.698Z,6.28
2024-04-24T02:13:45.993Z,6.29
2024-04-24T02:15:48.476Z,6.29
2024-04-24T02:17:51.094Z,6.30
2024-04-24T02:19:53.706Z,6.30
2024-04-24T02:21:56.157Z,6.30
2024-04-24T02:24:01.135Z,6.30
2024-04-24T02:26:10.041Z,6.29
2024-04-24T02:28:12.661Z,6.29
2024-04-24T02:30:15.136Z,6.30
2024-04-24T02:32:17.601Z,6.30
2024-04-24T02:34:20.119Z,6.28
2024-04-24T02:36:22.544Z,6.29
2024-04-24T02:38:25.114Z,6.28
2024-04-24T02:40:27.522Z,6.24
2024-04-24T02:42:29.924Z,6.22
2024-04-24T02:44:32.333Z,6.19
2024-04-24T02:46:34.713Z,6.17
2024-04-24T02:48:37.432Z,6.17
2024-04-24T02:50:40.260Z,6.17
2024-04-24T02:52:42.794Z,6.15
2024-04-24T02:54:45.227Z,6.16
2024-04-24T02:56:50.711Z,6.14
2024-04-24T02:58:54.590Z,6.12
2024-04-24T03:00:57.129Z,6.10
2024-04-24T03:02:59.915Z,6.09
2024-04-24T03:05:02.556Z,6.06
2024-04-24T03:07:05.091Z,6.05
2024-04-24T03:09:07.584Z,6.03
2024-04-24T03:11:10.111Z,6.01
2024-04-24T03:13:12.530Z,5.98
2024-04-24T03:15:15.029Z,5.96
2024-04-24T03:17:17.767Z,5.94
2024-04-24T03:19:20.485Z,5.92
2024-04-24T03:21:24.362Z,5.92
2024-04-24T03:23:27.022Z,5.90
2024-04-24T03:25:29.489Z,5.89
2024-04-24T03:27:33.476Z,5.86
2024-04-24T03:29:36.000Z,5.78
2024-04-24T03:31:38.606Z,5.70
2024-04-24T03:33:41.043Z,5.61
2024-04-24T03:35:43.521Z,5.52
2024-04-24T03:37:46.574Z,5.47
2024-04-24T03:39:49.269Z,5.46
2024-04-24T03:41:51.677Z,5.46
2024-04-24T03:43:54.807Z,5.45
2024-04-24T03:45:57.913Z,5.44
2024-04-24T03:48:00.589Z,5.44
2024-04-24T03:50:03.414Z,5.43
2024-04-24T03:52:06.072Z,5.39
2024-04-24T03:54:10.995Z,5.34
2024-04-24T03:56:13.484Z,5.33
2024-04-24T03:58:16.510Z,5.33
2024-04-24T04:00:19.051Z,5.33
2024-04-24T04:02:21.550Z,5.30
2024-04-24T04:04:24.093Z,5.25
2024-04-24T04:06:26.712Z,5.23
2024-04-24T04:08:30.875Z,5.18
2024-04-24T04:10:33.725Z,5.08
2024-04-24T04:12:36.113Z,5.03
2024-04-24T04:14:38.542Z,5.02
2024-04-24T04:16:41.019Z,4.99
2024-04-24T04:18:43.400Z,5.00
2024-04-24T04:20:46.093Z,5.01
2024-04-24T04:22:48.630Z,5.02
2024-04-24T04:24:51.212Z,5.04
2024-04-24T04:26:53.606Z,5.07
2024-04-24T04:28:56.144Z,5.09
2024-04-24T04:30:58.705Z,5.12
2024-04-24T04:33:01.235Z,5.13
2024-04-24T04:35:03.783Z,5.15
2024-04-24T04:37:06.186Z,5.15
2024-04-24T04:39:08.690Z,5.16
2024-04-24T04:41:11.146Z,5.18
2024-04-24T04:43:13.626Z,5.19
2024-04-24T04:45:16.087Z,5.21
2024-04-24T04:47:18.561Z,5.24
2024-04-24T04:49:21.091Z,5.27
2024-04-24T04:51:23.612Z,5.29
2024-04-24T04:53:26.143Z,5.31
2024-04-24T04:55:28.624Z,5.32
2024-04-24T04:57:31.120Z,5.34
2024-04-24T04:59:33.815Z,5.36
2024-04-24T05:01:36.415Z,5.40
2024-04-24T05:03:42.163Z,5.43
2024-04-24T05:05:45.119Z,5.45
2024-04-24T05:07:47.618Z,5.44
2024-04-24T05:09:50.055Z,5.41
2024-04-24T05:11:52.563Z,5.36
2024-04-24T05:13:55.228Z,5.32
2024-04-24T05:15:57.705Z,5.30
2024-04-24T05:18:01.351Z,5.31
2024-04-24T05:20:04.286Z,5.31
2024-04-24T05:22:07.067Z,5.28
2024-04-24T05:24:09.558Z,5.24
2024-04-24T05:26:30.366Z,5.22
2024-04-24T05:28:53.185Z,5.22
2024-04-24T05:30:55.640Z,5.24
2024-04-24T05:32:58.181Z,5.27
2024-04-24T05:35:01.177Z,5.30
2024-04-24T05:37:04.160Z,5.33
2024-04-24T05:39:06.632Z,5.36
2024-04-24T05:41:09.034Z,5.40
2024-04-24T05:43:13.222Z,5.41
2024-04-24T05:45:17.166Z,5.42
2024-04-24T05:47:20.363Z,5.43
2024-04-24T05:49:22.801Z,5.45
2024-04-24T05:51:25.140Z,5.46
2024-04-24T05:53:27.556Z,5.51
2024-04-24T05:55:29.958Z,5.53
2024-04-24T05:57:32.415Z,5.54
2024-04-24T05:59:34.944Z,5.54
2024-04-24T06:01:37.433Z,5.56
2024-04-24T06:03:39.775Z,5.58
2024-04-24T06:05:42.186Z,5.59
2024-04-24T06:07:45.268Z,5.59
2024-04-24T06:09:47.666Z,5.61
2024-04-24T06:11:50.223Z,5.63
2024-04-24T06:13:52.721Z,5.66
2024-04-24T06:15:55.165Z,5.67
2024-04-24T06:17:58.240Z,5.69
2024-04-24T06:20:00.811Z,5.71
2024-04-24T06:22:04.897Z,5.73
2024-04-24T06:24:10.516Z,5.74
2024-04-24T06:26:14.543Z,5.75
2024-04-24T06:28:17.037Z,5.74
2024-04-24T06:30:19.535Z,5.74
2024-04-24T06:32:22.193Z,5.76
2024-04-24T06:34:24.660Z,5.77
2024-04-24T06:36:28.006Z,5.78
2024-04-24T06:38:31.282Z,5.80
2024-04-24T06:40:33.731Z,5.80
2024-04-24T06:42:36.208Z,5.80
2024-04-24T06:44:38.711Z,5.80
2024-04-24T06:46:41.532Z,5.81
2024-04-24T06:48:43.999Z,5.83
2024-04-24T06:50:46.418Z,5.84
2024-04-24T06:52:49.044Z,5.85
2024-04-24T06:54:51.648Z,5.89
2024-04-24T06:56:54.351Z,5.88
2024-04-24T06:58:57.332Z,5.87
2024-04-24T07:01:02.498Z,5.87
2024-04-24T07:03:05.202Z,5.88
2024-04-24T07:05:07.922Z,5.87
2024-04-24T07:07:10.441Z,5.86
2024-04-24T07:09:12.964Z,5.87
2024-04-24T07:11:15.424Z,5.89
2024-04-24T07:13:18.613Z,5.91
2024-04-24T07:15:21.031Z,5.92
2024-04-24T07:17:23.938Z,5.92
2024-04-24T07:19:26.993Z,5.94
2024-04-24T07:21:29.478Z,5.95
2024-04-24T07:23:31.978Z,5.97
2024-04-24T07:25:35.299Z,6.00
2024-04-24T07:27:37.806Z,6.03
2024-04-24T07:29:40.236Z,6.03
2024-04-24T07:31:42.901Z,6.05
2024-04-24T07:33:45.427Z,6.06
2024-04-24T07:35:48.346Z,6.07
2024-04-24T07:37:53.017Z,6.07
2024-04-24T07:39:55.687Z,6.08
2024-04-24T07:41:58.055Z,6.09
2024-04-24T07:44:00.537Z,6.11
2024-04-24T07:46:04.179Z,6.12
2024-04-24T07:48:07.374Z,6.17
2024-04-24T07:50:09.943Z,6.20
2024-04-24T07:52:12.545Z,6.20
2024-04-24T07:54:15.036Z,6.22
2024-04-24T07:56:17.612Z,6.23
2024-04-24T07:58:20.352Z,6.25
2024-04-24T08:00:23.021Z,6.26
2024-04-24T08:02:25.665Z,6.27
2024-04-24T08:04:28.808Z,6.24
2024-04-24T08:06:31.249Z,6.18
2024-04-24T08:08:37.813Z,6.16
2024-04-24T08:10:40.319Z,6.12
2024-04-24T08:12:42.772Z,6.10
2024-04-24T08:14:45.112Z,6.08
2024-04-24T08:16:47.553Z,6.07
2024-04-24T08:18:51.868Z,6.05
2024-04-24T08:20:55.190Z,6.05
2024-04-24T08:22:57.798Z,6.08
2024-04-24T08:25:00.311Z,6.12
2024-04-24T08:27:03.323Z,6.13
2024-04-24T08:29:05.735Z,6.15
2024-04-24T08:31:09.310Z,6.18
2024-04-24T08:33:12.011Z,6.20
2024-04-24T08:35:14.512Z,6.20
2024-04-24T08:37:17.017Z,6.22
2024-04-24T08:39:19.402Z,6.21
2024-04-24T08:41:22.350Z,6.16
2024-04-24T08:43:24.854Z,6.11
2024-04-24T08:45:28.084Z,6.12
2024-04-24T08:47:31.881Z,6.13
2024-04-24T08:49:36.547Z,6.14
2024-04-24T08:51:42.380Z,6.15
2024-04-24T08:54:02.287Z,6.18
2024-04-24T08:56:06.235Z,6.19
2024-04-24T08:58:10.033Z,6.19
2024-04-24T09:00:14.018Z,6.23
2024-04-24T09:02:20.310Z,6.29
2024-04-24T09:04:23.897Z,6.33
2024-04-24T09:06:29.164Z,6.36
2024-04-24T09:08:35.668Z,6.39
2024-04-24T09:10:39.066Z,6.38
2024-04-24T09:12:41.910Z,6.41
2024-04-24T09:14:45.783Z,6.44
2024-04-24T09:16:48.946Z,6.49
2024-04-24T09:19:02.187Z,6.52
2024-04-24T09:21:05.930Z,6.52
2024-04-24T09:23:12.907Z,6.53
2024-04-24T09:25:15.905Z,6.54
2024-04-24T09:27:18.490Z,6.51
2024-04-24T09:29:20.923Z,6.49
2024-04-24T09:31:24.032Z,6.49
2024-04-24T09:33:26.730Z,6.53
2024-04-24T09:35:29.598Z,6.58
2024-04-24T09:37:32.513Z,6.65
2024-04-24T09:39:36.364Z,6.73
2024-04-24T09:41:43.204Z,6.83
2024-04-24T09:43:46.719Z,6.93
2024-04-24T09:45:49.580Z,6.99
2024-04-24T09:47:52.075Z,7.06
2024-04-24T09:49:55.774Z,7.11
2024-04-24T09:52:01.130Z,7.13
2024-04-24T09:54:03.621Z,7.15
2024-04-24T09:56:21.450Z,7.20
2024-04-24T09:58:27.008Z,7.25
2024-04-24T10:00:32.626Z,7.27
2024-04-24T10:02:40.473Z,7.29
2024-04-24T10:04:48.629Z,7.32
2024-04-24T10:06:52.690Z,7.41
2024-04-24T10:08:57.753Z,7.53
2024-04-24T10:11:04.068Z,7.66
2024-04-24T10:13:07.675Z,7.80
2024-04-24T10:15:12.281Z,7.93
2024-04-24T10:17:17.284Z,8.03
2024-04-24T10:19:22.069Z,8.10
2024-04-24T10:21:24.787Z,8.19
2024-04-24T10:23:28.664Z,8.25
2024-04-24T10:25:33.504Z,8.30
2024-04-24T10:27:40.323Z,8.35
2024-04-24T10:29:45.821Z,8.35
2024-04-24T10:31:49.536Z,8.33
2024-04-24T10:33:52.462Z,8.32
2024-04-24T10:35:56.797Z,8.31
2024-04-24T10:37:59.359Z,8.31
2024-04-24T10:40:01.899Z,8.29
2024-04-24T10:42:04.478Z,8.26
2024-04-24T10:44:08.818Z,8.25
2024-04-24T10:46:22.483Z,8.24
2024-04-24T10:48:43.426Z,8.24
2024-04-24T10:50:50.925Z,8.24
2024-04-24T10:52:55.677Z,8.26
2024-04-24T10:55:10.683Z,8.27
2024-04-24T10:57:15.107Z,8.30
2024-04-24T10:59:18.012Z,8.33
2024-04-24T11:01:29.291Z,8.35
2024-04-24T11:03:38.080Z,8.35
2024-04-24T11:05:43.211Z,8.37
2024-04-24T11:07:57.825Z,8.37
2024-04-24T11:10:00.379Z,8.37
2024-04-24T11:12:05.442Z,8.38
2024-04-24T11:14:11.055Z,8.39
2024-04-24T11:16:15.983Z,8.39
2024-04-24T11:18:18.579Z,8.36
2024-04-24T11:20:23.213Z,8.32
2024-04-24T11:22:29.443Z,8.29
2024-04-24T11:24:32.394Z,8.26
2024-04-24T11:26:36.709Z,8.22
2024-04-24T11:28:39.458Z,8.20
2024-04-24T11:30:44.240Z,8.21
2024-04-24T11:32:52.571Z,8.20
2024-04-24T11:34:55.299Z,8.20
2024-04-24T11:36:57.957Z,8.18
2024-04-24T11:39:01.264Z,8.16
2024-04-24T11:41:04.249Z,8.18
2024-04-24T11:43:07.030Z,8.21
2024-04-24T11:45:09.704Z,8.22
2024-04-24T11:47:12.310Z,8.23
2024-04-24T11:49:18.989Z,8.23
2024-04-24T11:51:23.459Z,8.25
2024-04-24T11:53:26.118Z,8.27
2024-04-24T11:55:28.690Z,8.28
2024-04-24T11:57:38.005Z,8.28
2024-04-24T11:59:49.683Z,8.31
2024-04-24T12:01:52.631Z,8.33
2024-04-24T12:04:02.199Z,8.35
2024-04-24T12:06:06.060Z,8.30
2024-04-24T12:08:08.933Z,8.22
2024-04-24T12:10:11.584Z,8.19
2024-04-24T12:12:14.440Z,8.07
2024-04-24T12:14:18.074Z,7.93
2024-04-24T12:16:21.168Z,7.81
2024-04-24T12:18:24.119Z,7.74
2024-04-24T12:20:26.890Z,7.71
2024-04-24T12:22:29.392Z,7.71
2024-04-24T12:24:33.811Z,7.77
2024-04-24T12:26:36.232Z,7.88
2024-04-24T12:28:38.690Z,7.98
2024-04-24T12:30:41.552Z,8.10
2024-04-24T12:32:44.518Z,8.19
2024-04-24T12:34:51.456Z,8.27
2024-04-24T12:36:57.574Z,8.38
2024-04-24T12:39:00.033Z,8.47
2024-04-24T12:41:02.852Z,8.53
2024-04-24T12:43:05.301Z,8.59
2024-04-24T12:45:09.582Z,8.69
2024-04-24T12:47:13.633Z,8.76
2024-04-24T12:49:16.084Z,8.80
2024-04-24T12:51:18.513Z,8.85
2024-04-24T12:53:21.021Z,8.80
2024-04-24T12:55:23.550Z,8.75
2024-04-24T12:57:26.047Z,8.71
2024-04-24T12:59:28.626Z,8.68
2024-04-24T13:01:31.195Z,8.69
2024-04-24T13:03:34.447Z,8.72
2024-04-24T13:05:37.177Z,8.73
2024-04-24T13:07:43.379Z,8.76
2024-04-24T13:09:46.638Z,8.78
2024-04-24T13:11:49.432Z,8.82
2024-04-24T13:13:51.909Z,8.85
2024-04-24T13:15:54.387Z,8.89
2024-04-24T13:17:57.291Z,8.93
2024-04-24T13:20:02.219Z,8.94
2024-04-24T13:22:07.885Z,8.94
2024-04-24T13:24:11.810Z,8.91
2024-04-24T13:26:14.281Z,8.87
2024-04-24T13:28:16.956Z,8.86
2024-04-24T13:30:19.995Z,8.87
2024-04-24T13:32:22.684Z,8.89
2024-04-24T13:34:25.430Z,8.92
2024-04-24T13:36:30.054Z,8.92
2024-04-24T13:38:35.231Z,8.98
2024-04-24T13:40:37.983Z,9.01
2024-04-24T13:42:40.685Z,9.01
2024-04-24T13:44:44.482Z,9.04
2024-04-24T13:46:47.178Z,9.04
2024-04-24T13:48:49.887Z,9.04
2024-04-24T13:50:52.541Z,9.00
2024-04-24T13:52:55.183Z,8.98
2024-04-24T13:54:57.704Z,8.96
2024-04-24T13:57:00.835Z,8.93
2024-04-24T13:59:03.476Z,8.91
2024-04-24T14:01:07.919Z,8.88
2024-04-24T14:03:10.653Z,8.84
2024-04-24T14:05:13.644Z,8.77
2024-04-24T14:07:17.629Z,8.73
2024-04-24T14:09:21.962Z,8.69
2024-04-24T14:11:26.465Z,8.65
2024-04-24T14:13:29.143Z,8.61
2024-04-24T14:15:31.613Z,8.58
2024-04-24T14:17:36.906Z,8.59
2024-04-24T14:19:39.856Z,8.58
2024-04-24T14:21:43.180Z,8.60
2024-04-24T14:23:45.939Z,8.59
2024-04-24T14:25:48.955Z,8.56
2024-04-24T14:27:51.667Z,8.52
2024-04-24T14:29:54.726Z,8.47
2024-04-24T14:31:57.652Z,8.40
2024-04-24T14:34:00.211Z,8.35
2024-04-24T14:36:03.131Z,8.30
2024-04-24T14:38:05.764Z,8.24
2024-04-24T14:40:08.822Z,8.24
2024-04-24T14:42:11.222Z,8.24
2024-04-24T14:44:13.808Z,8.26
2024-04-24T14:46:16.325Z,8.29
2024-04-24T14:48:19.076Z,8.34
2024-04-24T14:50:21.617Z,8.41
2024-04-24T14:52:24.257Z,8.49
2024-04-24T14:54:27.280Z,8.58
2024-04-24T14:56:30.189Z,8.69
2024-04-24T14:58:32.766Z,8.83
2024-04-24T15:00:35.127Z,9.02
2024-04-24T15:02:37.774Z,9.22
2024-04-24T15:04:40.344Z,9.33
2024-04-24T15:06:59.577Z,9.37
2024-04-24T15:09:02.213Z,9.43
2024-04-24T15:11:05.056Z,9.56
2024-04-24T15:13:07.712Z,9.69
2024-04-24T15:15:10.388Z,9.80
2024-04-24T15:17:13.245Z,9.95
2024-04-24T15:19:16.082Z,10.23
2024-04-24T15:21:18.655Z,10.44
2024-04-24T15:23:21.690Z,10.56
2024-04-24T15:25:25.191Z,10.57
2024-04-24T15:27:28.033Z,10.67
2024-04-24T15:29:30.629Z,10.79
2024-04-24T15:31:33.175Z,10.83
2024-04-24T15:33:38.847Z,10.80
2024-04-24T15:35:45.633Z,10.84
2024-04-24T15:37:48.122Z,10.82
2024-04-24T15:39:50.683Z,10.73
2024-04-24T15:41:56.034Z,10.75
2024-04-24T15:43:58.481Z,10.67
2024-04-24T15:46:00.949Z,10.55
2024-04-24T15:48:03.655Z,10.46
2024-04-24T15:50:06.674Z,10.35
2024-04-24T15:52:10.304Z,10.40
2024-04-24T15:54:12.890Z,10.63
2024-04-24T15:56:18.594Z,10.84
2024-04-24T15:58:22.638Z,10.82
2024-04-24T16:00:28.524Z,10.77
2024-04-24T16:02:31.139Z,10.76
2024-04-24T16:04:34.282Z,10.82
2024-04-24T16:06:36.960Z,11.13
2024-04-24T16:08:39.631Z,11.48
2024-04-24T16:10:42.520Z,11.74
2024-04-24T16:12:45.332Z,11.93
2024-04-24T16:14:47.793Z,12.11
2024-04-24T16:16:50.309Z,12.25
2024-04-24T16:18:52.895Z,12.34
2024-04-24T16:20:57.196Z,12.12
2024-04-24T16:23:00.781Z,11.82
2024-04-24T16:25:03.382Z,11.56
2024-04-24T16:27:07.478Z,11.50
2024-04-24T16:29:10.773Z,11.36
2024-04-24T16:31:13.481Z,11.19
2024-04-24T16:33:16.278Z,11.03
2024-04-24T16:35:19.579Z,10.87
2024-04-24T16:37:22.103Z,10.70
2024-04-24T16:39:25.225Z,10.57
2024-04-24T16:41:28.971Z,10.47
2024-04-24T16:43:34.946Z,10.41
2024-04-24T16:45:38.719Z,10.38
2024-04-24T16:47:42.546Z,10.42
2024-04-24T16:49:46.434Z,10.36
2024-04-24T16:51:51.098Z,10.30
2024-04-24T16:53:55.822Z,10.24
2024-04-24T16:55:59.651Z,10.19
2024-04-24T16:58:03.672Z,10.12
2024-04-24T17:00:08.826Z,10.16
2024-04-24T17:02:16.727Z,10.12
2024-04-24T17:04:20.625Z,10.12
2024-04-24T17:06:28.865Z,10.61
2024-04-24T17:08:32.969Z,10.79
2024-04-24T17:10:38.869Z,10.96
2024-04-24T17:12:42.880Z,11.54
2024-04-24T17:14:48.961Z,11.81
2024-04-24T17:16:51.392Z,12.42
2024-04-24T17:18:58.310Z,12.97
2024-04-24T17:21:00.970Z,13.44
2024-04-24T17:23:05.047Z,13.58
2024-04-24T17:25:08.917Z,13.12
2024-04-24T17:27:14.328Z,12.90
2024-04-24T17:29:19.472Z,13.16
2024-04-24T17:31:24.856Z,13.50
2024-04-24T17:33:29.187Z,13.72
2024-04-24T17:35:32.758Z,13.82
2024-04-24T17:37:36.455Z,14.02
2024-04-24T17:39:39.226Z,14.18
2024-04-24T17:41:43.405Z,14.31
2024-04-24T17:43:45.859Z,14.11
2024-04-24T17:45:52.086Z,13.66
2024-04-24T17:47:54.710Z,13.20
2024-04-24T17:49:57.245Z,12.81
2024-04-24T17:51:59.818Z,12.42
2024-04-24T17:54:02.996Z,12.07
2024-04-24T17:56:05.589Z,11.73
2024-04-24T17:58:09.597Z,11.43
2024-04-24T18:00:13.718Z,11.18
2024-04-24T18:02:24.038Z,10.97
2024-04-24T18:04:31.328Z,10.76
2024-04-24T18:06:36.444Z,10.57
2024-04-24T18:08:41.587Z,10.39
2024-04-24T18:10:47.402Z,10.22
2024-04-24T18:12:53.433Z,10.07
2024-04-24T18:15:00.616Z,9.94
2024-04-24T18:17:04.862Z,9.83
2024-04-24T18:19:09.411Z,9.71
2024-04-24T18:21:13.914Z,9.61
2024-04-24T18:23:18.512Z,9.52
2024-04-24T18:25:22.299Z,9.43
2024-04-24T18:27:27.264Z,9.35
2024-04-24T18:29:32.398Z,9.29
2024-04-24T18:31:43.177Z,9.22
2024-04-24T18:33:49.458Z,9.15
2024-04-24T18:35:55.219Z,9.08
2024-04-24T18:37:57.854Z,9.01
2024-04-24T18:40:07.841Z,8.98
2024-04-24T18:42:14.291Z,8.92
2024-04-24T18:44:20.662Z,8.86
2024-04-24T18:46:24.637Z,8.76
2024-04-24T18:48:31.461Z,8.69
2024-04-24T18:50:37.593Z,8.63
2024-04-24T18:52:42.249Z,8.60
2024-04-24T18:54:45.824Z,8.56
2024-04-24T18:56:49.021Z,8.52
2024-04-24T18:58:51.391Z,8.49
2024-04-24T19:00:57.236Z,8.46
2024-04-24T19:03:00.198Z,8.42
2024-04-24T19:05:04.230Z,8.40
2024-04-24T19:07:10.301Z,8.37
2024-04-24T19:09:12.913Z,8.34
2024-04-24T19:11:16.812Z,8.31
2024-04-24T19:13:20.089Z,8.27
2024-04-24T19:15:23.912Z,8.25
2024-04-24T19:17:26.632Z,8.24
2024-04-24T19:19:33.268Z,8.21
2024-04-24T19:21:38.942Z,8.19
2024-04-24T19:23:42.887Z,8.16
2024-04-24T19:25:46.919Z,8.14
2024-04-24T19:27:51.671Z,8.11
2024-04-24T19:29:55.788Z,8.07
2024-04-24T19:32:01.953Z,8.03
2024-04-24T19:34:09.877Z,8.00
2024-04-24T19:36:16.761Z,7.98
2024-04-24T19:38:23.972Z,7.96
2024-04-24T19:40:31.520Z,7.95
2024-04-24T19:42:35.829Z,7.93
2024-04-24T19:44:40.141Z,7.89
2024-04-24T19:46:44.161Z,7.86
2024-04-24T19:48:54.081Z,7.83
2024-04-24T19:50:59.238Z,7.79
2024-04-24T19:53:03.900Z,7.74
2024-04-24T19:55:07.092Z,7.71
2024-04-24T19:57:12.280Z,7.68
2024-04-24T19:59:14.986Z,7.66
2024-04-24T20:01:20.898Z,7.64
2024-04-24T20:03:26.147Z,7.63
2024-04-24T20:05:33.071Z,7.59
2024-04-24T20:07:37.869Z,7.55
2024-04-24T20:09:41.964Z,7.53
2024-04-24T20:11:45.325Z,7.52
2024-04-24T20:13:48.220Z,7.51
2024-04-24T20:15:53.133Z,7.52
2024-04-24T20:17:57.839Z,7.49
2024-04-24T20:20:01.236Z,7.50
2024-04-24T20:22:03.871Z,7.49
2024-04-24T20:24:06.660Z,7.50
2024-04-24T20:26:18.351Z,7.47
2024-04-24T20:28:20.972Z,7.47
2024-04-24T20:30:23.396Z,7.46
2024-04-24T20:32:26.908Z,7.47
2024-04-24T20:34:29.539Z,7.45
2024-04-24T20:36:32.114Z,7.43
2024-04-24T20:38:34.679Z,7.41
2024-04-24T20:40:37.137Z,7.40
2024-04-24T20:42:40.157Z,7.40
2024-04-24T20:44:42.629Z,7.40
2024-04-24T20:46:45.033Z,7.39
2024-04-24T20:48:47.630Z,7.38
2024-04-24T20:50:50.059Z,7.38
2024-04-24T20:52:52.472Z,7.38
2024-04-24T20:54:55.384Z,7.39
2024-04-24T20:56:57.822Z,7.38
2024-04-24T20:59:00.327Z,7.36
2024-04-24T21:01:06.322Z,7.33
2024-04-24T21:03:09.300Z,7.30
2024-04-24T21:05:12.994Z,7.28
2024-04-24T21:07:16.866Z,7.29
2024-04-24T21:09:19.828Z,7.27
2024-04-24T21:11:24.712Z,7.26
2024-04-24T21:13:27.719Z,7.25
2024-04-24T21:15:30.973Z,7.24
2024-04-24T21:17:33.678Z,7.23
2024-04-24T21:19:37.150Z,7.23
2024-04-24T21:23:45.414Z,7.26
2024-04-24T21:25:48.321Z,7.27
2024-04-24T21:27:51.333Z,7.29
2024-04-24T21:29:54.050Z,7.34
2024-04-24T21:31:56.559Z,7.35
2024-04-24T21:33:59.111Z,7.34
2024-04-24T21:36:04.740Z,7.35
2024-04-24T21:38:07.180Z,7.33
2024-04-24T21:40:10.169Z,7.33
2024-04-24T21:42:12.632Z,7.32
2024-04-24T21:44:15.264Z,7.28
2024-04-24T21:46:19.677Z,7.24
2024-04-24T21:48:22.218Z,7.22
2024-04-24T21:50:24.894Z,7.19
2024-04-24T21:52:27.402Z,7.14
2024-04-24T21:54:30.961Z,7.10
2024-04-24T21:56:35.762Z,7.09
2024-04-24T21:58:40.003Z,7.10
2024-04-24T22:00:42.593Z,7.08
2024-04-24T22:02:45.021Z,7.06
2024-04-24T22:04:47.485Z,7.06
2024-04-24T22:06:50.064Z,7.07
2024-04-24T22:08:52.505Z,7.06
2024-04-24T22:10:54.857Z,7.06
2024-04-24T22:13:01.764Z,7.06
2024-04-24T22:15:04.682Z,7.08
2024-04-24T22:17:16.459Z,7.10
2024-04-24T22:19:24.354Z,7.10
2024-04-24T22:21:29.389Z,7.11
2024-04-24T22:23:32.946Z,7.13
2024-04-24T22:25:36.383Z,7.13
2024-04-24T22:27:38.801Z,7.16
2024-04-24T22:29:41.215Z,7.19
2024-04-24T22:31:43.862Z,7.19
2024-04-24T22:33:47.269Z,7.19
2024-04-24T22:35:49.965Z,7.18
2024-04-24T22:37:53.026Z,7.18
2024-04-24T22:39:55.389Z,7.19
2024-04-24T22:41:57.814Z,7.18
2024-04-24T22:44:00.246Z,7.18
2024-04-24T22:46:03.805Z,7.17
2024-04-24T22:48:06.574Z,7.16
2024-04-24T22:50:09.920Z,7.13
2024-04-24T22:52:12.610Z,7.10
2024-04-24T22:54:15.140Z,7.08
2024-04-24T22:56:17.592Z,7.06
2024-04-24T22:58:19.969Z,7.03
2024-04-24T23:00:22.662Z,7.03
2024-04-24T23:02:25.271Z,7.03
2024-04-24T23:04:29.774Z,7.03
2024-04-24T23:06:32.258Z,7.03
2024-04-24T23:08:34.916Z,7.05
2024-04-24T23:10:37.546Z,7.06
2024-04-24T23:12:42.406Z,7.09
2024-04-24T23:14:45.645Z,7.10
2024-04-24T23:16:48.128Z,7.09
2024-04-24T23:18:50.594Z,7.08
2024-04-24T23:20:54.155Z,7.08
2024-04-24T23:22:56.613Z,7.10
2024-04-24T23:24:59.121Z,7.14
2024-04-24T23:27:01.813Z,7.18
2024-04-24T23:29:04.338Z,7.18
2024-04-24T23:31:07.609Z,7.19
2024-04-24T23:33:10.105Z,7.18
2024-04-24T23:35:12.662Z,7.14
2024-04-24T23:37:15.104Z,7.10
2024-04-24T23:39:17.644Z,7.06
2024-04-24T23:41:20.205Z,7.02
2024-04-24T23:43:22.619Z,6.97
2024-04-24T23:45:25.527Z,6.95
2024-04-24T23:47:28.178Z,6.94
2024-04-24T23:49:31.016Z,6.93
2024-04-24T23:51:33.981Z,6.90
2024-04-24T23:53:36.963Z,6.87
2024-04-24T23:55:40.631Z,6.83
2024-04-24T23:57:43.425Z,6.83
2024-04-24T23:59:46.096Z,6.84
